Etna, WY

3:50 AM MDT on July 29, 2014 (GMT -0600)
One Mile South of (KWYALPIN2) Elev 5650 ft | 43.16 °N, 111.03 °W | Change Station

Current weather conditions updated 0 second ago

Clear
Clear
64.1 °F
Feels Like 64.1 °F
N
0.0
Wind Variable Wind from SSE
Gusts 10.0 mph

Today is forecast to be Much Cooler than yesterday. Scattered thunderstorms.

Today
High -- | Low -- °F
--% Chance of Precip.
Yesterday
High -- | Low -- °F
Precip. -- in
6:11 AM 8:48 PM
Waxing Crescent, 5% visible
Pressure 30.31 in
Visibility 10.0 miles
Clouds Clear
Dew Point 50 °F
Humidity 61%
Rainfall 0.00 in
Snow Depth Not available.
UV 0.0 out of 12
Pollen 6.30 out of 12
Air Quality Not available.
Flu Activity Not available.
METAR KAFO 290935Z AUTO 00000KT 10SM CLR 16/10 A3031 RMK AO2

More Conditions Fewer Conditions

Pressure 30.31 in
Visibility 10.0 miles
Clouds Clear
Dew Point 50 °F
Humidity 61%
Rainfall 0.00 in
Snow Depth Not available.
UV 0.0 out of 12
Pollen 6.30 out of 12
Air Quality Not available.
Flu Activity Not available.
METAR KAFO 290935Z AUTO 00000KT 10SM CLR 16/10 A3031 RMK AO2

More Conditions Fewer Conditions

10-Day Weather Forecast

Almanac

Astronomy

Jul. 29, 2014 Rise Set
Actual Time 6:11 AM MDT 8:48 PM MDT
Civil Twilight 5:39 AM MDT 9:21 PM MDT
Nautical Twilight 4:58 AM MDT 10:01 PM MDT
Astronomical Twilight 4:11 AM MDT 10:48 PM MDT
Moon 8:57 AM MDT 9:56 PM MDT
Length of Visible Light 15h 42m
Length of Day
14h 36m
Tomorrow will be 2m 9s shorter.
Waxing Crescent, 5% of the Moon is Illuminated
Today
Waxing Crescent
Aug 3
First Quarter
Aug 10
Full
Aug 17
Last Quarter
Aug 25
New

Today's Extremes

State Highs State Lows

Community

WunderPhotos

Upload Photos

1,738,675 photos uploaded!

Nearby

Snow Depth

Station Depth Elevation
Blind Bull Summit 1 in 8900 ft
Phillips Bench 0 in 8200 ft
Salt River Summit 0 in 7600 ft
Loomis Park 0 in 8240 ft
Gros Ventre Summit 1 in 8750 ft

Earthquake Activity

City Distance Mag. Time & Date
No recent earthquake activity has been reported nearby.
Minimum magnitude displayed is 2.5.

Coastal Water Temperatures

Place Temperature
No Stations Reporting

Nearby Weather Stations

Station Location Temp. Dew Point Humidity Wind Precip. Elev Updated Type
One Mile South of, Alpine, WY 64.1 °F 50 °F 61% SSE  at  0.0 mph 0.00 in / hr 5650 ft 3:50 AM MDT Rapid Fire
RAWS DALE BITNER ID, Wayan, ID 58 °F 53 °F 82% NNE  at  2 mph 0.00 in / hr 6391 ft 2:45 AM MDT MADIS
LCWY Branch Office, Afton, WY 62.5 °F 51 °F 66% SW  at  3.0 mph 0.00 in / hr 6270 ft 3:46 AM MDT Normal
HADS SNAKE RIVER NEAR IRWIN 5SE ID, Irwin, ID 63 °F - - North  at  - 0.00 in / hr 5353 ft 2:30 AM MDT MADIS
Hoback Nation, Jackson, WY 59.0 °F 51 °F 75% East  at  0.0 mph 0.00 in / hr 5930 ft 3:48 AM MDT Normal
RAWS TARGHEE PORTABLE #3 ID, Wayan, ID 60 °F 48 °F 65% North  at  0 mph 0.00 in / hr 6899 ft 2:42 AM MDT MADIS

Show More Stations Show Fewer Stations